Thunder radar more information blitzortung!


Löydät sääaseman tiedot myös:

European Weather Network

Finland Weather Exchange

Weather Underground

AWEKAS



Weather Underground säähistoriasivu

Päivittäin yhteenveto Huhtikuu 17, 2017 Yksiköt:  Englantilaiset    Metriset   Molemmat
« Edellinen Päivä
Seuraava Päivä »
Päivittäin Viikoittain Kuukausittain Vuosittain Mukautettu
  Korkea: Matala: Keskiarvo:
Lämpötila: TemperatureC °F -6.4 °F -1 °F
Kastepiste: DewpointC °F -7.8 °F -4.7 °F
Kosteus: Humidity % 54 % 76 %
Tuulen nopeus: WindSpeedKMH mph 0.0 mph 0.5 mph
Tuulenpuuska: WindSpeedGustKMH mph - -
Tuuli:- - SSE
Ilmanpaine: PressurehPa in 1015.1 in -
Sade: 0.0 in    
Historical Graphs
 
 
Taulukkotiedot Huhtikuu 17, 2017
Aika Lämpötila Kastepiste Ilmanpaine Tuuli Tuulen nopeus Tuulenpuuska Kosteus Sademäärä (tunneittain)
TemperatureC °F DewpointC °F PressurehPa in Calm     Humidity % HourlyPrecipMM in
00:00 -2.8 °F -5.3 °F 1015.1 in Calm   3.2 mph 83 % 0.0 in
00:15 -2.9 °F -5.2 °F 1015.1 in Calm   1.6 mph 84 % 0.0 in
00:30 -3.0 °F -5.3 °F 1015.1 in Calm   4.8 mph 84 % 0.0 in
00:45 -3.1 °F -5.4 °F 1015.1 in Calm   1.6 mph 84 % 0.0 in
01:00 -3.2 °F -5.5 °F 1015.1 in Calm   3.2 mph 84 % 0.0 in
01:30 -3.5 °F -5.8 °F 1015.5 in Calm   1.6 mph 84 % 0.0 in
01:45 -3.6 °F -5.9 °F 1015.5 in Calm   1.6 mph 84 % 0.0 in
02:00 -3.8 °F -5.9 °F 1015.5 in Calm     85 % 0.0 in
02:15 -3.9 °F -6.1 °F 1015.5 in Calm   1.6 mph 85 % 0.0 in
02:30 -4.1 °F -6.1 °F 1015.8 in Calm     86 % 0.0 in
02:45 -4.2 °F -6.2 °F 1015.8 in Calm   1.6 mph 86 % 0.0 in
03:00 -4.3 °F -6.3 °F 1015.8 in Calm     86 % 0.0 in
03:15 -4.5 °F -6.5 °F 1015.8 in Calm     86 % 0.0 in
03:30 -5.0 °F -6.8 °F 1015.8 in Calm     87 % 0.0 in
03:45 -5.4 °F -7.1 °F 1016.1 in Calm     88 % 0.0 in
04:00 -5.7 °F -7.2 °F 1016.1 in Calm     89 % 0.0 in
04:15 -5.8 °F -7.4 °F 1016.1 in Calm     89 % 0.0 in
04:30 -5.9 °F -7.3 °F 1016.1 in Calm     90 % 0.0 in
04:45 -6.2 °F -7.5 °F 1016.1 in Calm     90 % 0.0 in
05:00 -6.4 °F -7.8 °F 1016.5 in Calm     90 % 0.0 in
05:15 -6.3 °F -7.4 °F 1016.5 in Calm   4.8 mph 92 % 0.0 in
05:30 -6.0 °F -7.1 °F 1016.5 in Calm     92 % 0.0 in
05:45 -5.5 °F -6.5 °F 1016.8 in Calm     93 % 0.0 in
06:00 -4.7 °F -5.7 °F 1016.8 in Calm   1.6 mph 93 % 0.0 in
06:15 -4.2 °F -5.3 °F 1016.8 in Calm     92 % 0.0 in
06:30 -3.8 °F -5.2 °F 1016.8 in Calm     90 % 0.0 in
06:45 -3.7 °F -5.2 °F 1016.8 in Calm   1.6 mph 89 % 0.0 in
07:00 -3.5 °F -5.1 °F 1017.2 in Calm     89 % 0.0 in
07:15 -3.3 °F -5.0 °F 1017.2 in Calm   1.6 mph 88 % 0.0 in
07:30 -3.1 °F -4.8 °F 1017.2 in Calm   4.8 mph 88 % 0.0 in
07:45 -2.9 °F -4.6 °F 1017.5 in Calm   3.2 mph 88 % 0.0 in
08:00 -2.8 °F -4.5 °F 1017.5 in Calm   3.2 mph 88 % 0.0 in
08:15 -2.7 °F -4.4 °F 1017.5 in Calm   4.8 mph 88 % 0.0 in
08:30 -2.4 °F -4.1 °F 1017.8 in Calm     88 % 0.0 in
08:45 -2.2 °F -4.0 °F 1017.8 in Calm   1.6 mph 87 % 0.0 in
09:00 -1.9 °F -3.8 °F 1017.8 in Calm   1.6 mph 87 % 0.0 in
09:15 -1.7 °F -3.7 °F 1018.2 in Calm   3.2 mph 86 % 0.0 in
09:30 -1.5 °F -3.7 °F 1018.2 in Calm   1.6 mph 85 % 0.0 in
09:45 -1.2 °F -3.4 °F 1018.2 in Calm   3.2 mph 85 % 0.0 in
10:00 -0.8 °F -3.1 °F 1018.5 in Calm   4.8 mph 84 % 0.0 in
10:15 -0.4 °F -3.1 °F 1018.5 in Calm   3.2 mph 82 % 0.0 in
10:30 0.1 °F -2.8 °F 1018.5 in Calm   4.8 mph 81 % 0.0 in
10:45 0.1 °F -2.8 °F 1018.8 in Calm   4.8 mph 81 % 0.0 in
11:00 0.1 °F -2.3 °F 1018.8 in Calm   6.4 mph 84 % 0.0 in
11:15 -0.3 °F -2.5 °F 1019.2 in Calm   3.2 mph 85 % 0.0 in
11:30 0.0 °F -2.2 °F 1019.2 in Calm   3.2 mph 85 % 0.0 in
11:45 0.7 °F -2.4 °F 1019.2 in Calm   6.4 mph 80 % 0.0 in
12:00 1.7 °F -2.3 °F 1019.2 in NNW 1.6 mph 6.4 mph 75 % 0.0 in
12:15 1.3 °F -2.8 °F 1019.2 in NNE 1.6 mph 4.8 mph 74 % 0.0 in
12:30 0.5 °F -3.2 °F 1019.2 in Calm   1.6 mph 76 % 0.0 in
12:45 0.6 °F -3.5 °F 1019.2 in Calm   9.7 mph 74 % 0.0 in
13:00 1.1 °F -3.8 °F 1019.2 in Calm   8.0 mph 70 % 0.0 in
13:15 2.3 °F -4.4 °F 1019.2 in SSE 1.6 mph 6.4 mph 61 % 0.0 in
13:30 2.9 °F -4.6 °F 1019.5 in NNW 1.6 mph 6.4 mph 58 % 0.0 in
13:45 3.0 °F -4.0 °F 1019.5 in NE 1.6 mph 6.4 mph 60 % 0.0 in
14:00 2.9 °F -3.3 °F 1019.5 in NNE 1.6 mph 6.4 mph 64 % 0.0 in
14:15 3.4 °F -4.6 °F 1019.5 in NNE 1.6 mph 6.4 mph 56 % 0.0 in
14:30 2.9 °F -4.6 °F 1019.9 in NNE 1.6 mph 8.0 mph 58 % 0.0 in
14:45 3.2 °F -4.3 °F 1019.9 in North 1.6 mph 9.7 mph 58 % 0.0 in
15:00 3.3 °F -3.7 °F 1019.9 in North 3.2 mph 12.9 mph 60 % 0.0 in
15:15 2.8 °F -3.4 °F 1020.2 in NNW 4.8 mph 14.5 mph 64 % 0.0 in
15:30 2.7 °F -4.8 °F 1020.2 in ENE 1.6 mph 6.4 mph 58 % 0.0 in
15:45 3.1 °F -4.6 °F 1020.2 in NNE 3.2 mph 9.7 mph 57 % 0.0 in
16:00 2.7 °F -3.9 °F 1020.2 in Calm   3.2 mph 62 % 0.0 in
16:15 3.3 °F -4.4 °F 1020.2 in NNE 1.6 mph 4.8 mph 57 % 0.0 in
16:30 3.3 °F -5.2 °F 1020.5 in NW 1.6 mph 8.0 mph 54 % 0.0 in
16:45 2.7 °F -4.5 °F 1020.5 in NNW 4.8 mph 12.9 mph 59 % 0.0 in
17:00 3.1 °F -4.6 °F 1020.5 in NNW 3.2 mph 8.0 mph 57 % 0.0 in
17:15 3.0 °F -4.7 °F 1020.9 in NE 3.2 mph 8.0 mph 57 % 0.0 in
17:30 2.0 °F -6.1 °F 1020.5 in Calm   3.2 mph 55 % 0.0 in
17:45 2.2 °F -4.8 °F 1020.9 in NNW 1.6 mph 6.4 mph 60 % 0.0 in
18:00 2.4 °F -4.5 °F 1020.9 in NNW 1.6 mph 4.8 mph 60 % 0.0 in
18:15 1.7 °F -5.1 °F 1020.9 in Calm   1.6 mph 61 % 0.0 in
18:30 1.7 °F -4.4 °F 1020.9 in Calm   3.2 mph 64 % 0.0 in
18:45 1.7 °F -4.6 °F 1021.2 in Calm   3.2 mph 63 % 0.0 in
19:00 1.3 °F -4.5 °F 1021.2 in Calm   1.6 mph 65 % 0.0 in
19:15 0.8 °F -4.6 °F 1021.6 in Calm   1.6 mph 67 % 0.0 in
19:30 0.6 °F -4.7 °F 1021.6 in Calm   4.8 mph 68 % 0.0 in
19:45 0.3 °F -4.5 °F 1021.6 in Calm   4.8 mph 70 % 0.0 in
20:00 0.4 °F -4.0 °F 1021.9 in North 1.6 mph 11.3 mph 72 % 0.0 in
20:15 0.6 °F -3.9 °F 1022.2 in North 1.6 mph 6.4 mph 72 % 0.0 in
20:30 0.3 °F -3.8 °F 1022.2 in Calm   4.8 mph 74 % 0.0 in
20:45 -0.1 °F -4.0 °F 1022.6 in NNE 1.6 mph 6.4 mph 75 % 0.0 in
21:00 -0.5 °F -4.0 °F 1022.6 in Calm   1.6 mph 77 % 0.0 in
21:15 -0.6 °F -3.9 °F 1022.9 in Calm   1.6 mph 78 % 0.0 in
21:30 -0.8 °F -4.1 °F 1022.9 in Calm   1.6 mph 78 % 0.0 in
21:45 -1.1 °F -4.2 °F 1023.2 in Calm     79 % 0.0 in
22:00 -1.3 °F -4.3 °F 1023.6 in Calm     80 % 0.0 in
22:15 -1.6 °F -4.6 °F 1023.9 in Calm     80 % 0.0 in
22:30 -1.7 °F -4.3 °F 1023.9 in Calm     82 % 0.0 in
22:45 -1.7 °F -4.3 °F 1024.3 in Calm     82 % 0.0 in
23:00 -1.8 °F -4.8 °F 1024.3 in Calm   3.2 mph 80 % 0.0 in
23:15 -2.1 °F -5.0 °F 1024.6 in Calm   1.6 mph 80 % 0.0 in
23:30 -2.3 °F -5.3 °F 1024.6 in Calm     80 % 0.0 in
23:45 -2.4 °F -5.4 °F 1024.9 in Calm   1.6 mph 80 % 0.0 in
Esan sääasema
Terveisin Weather Underground - 2.75 mb

Alkuperäinen skripti  Jim McMurry - jmcmurry@mwt.net Sovitettu myös templatelle  Wim van der Kuil - Leuven-Template.eu

Laitteet joita käytämme:

Sääasema
Davis VP2

Sääasemaohjelma
Cumulus

Sääaseman tietokone
Asus EeePC

Palveluntarjoaja
Suncomet

Davis VP2

Cumulus

Asus EeePC

Suncomet